createdAt,value
2023-01-23T00:01:32.549Z,34.10
2023-01-23T00:04:00.789Z,35.23
2023-01-23T00:06:28.443Z,27.27
2023-01-23T00:08:56.902Z,25.58
2023-01-23T00:11:27.052Z,22.50
2023-01-23T00:13:54.457Z,21.58
2023-01-23T00:16:23.478Z,19.73
2023-01-23T00:18:51.413Z,22.15
2023-01-23T00:21:21.070Z,19.95
2023-01-23T00:23:51.045Z,26.02
2023-01-23T00:26:23.895Z,33.25
2023-01-23T00:28:51.217Z,35.33
2023-01-23T00:31:22.485Z,40.60
2023-01-23T00:33:54.357Z,30.58
2023-01-23T00:36:23.677Z,22.80
2023-01-23T00:38:50.597Z,26.83
2023-01-23T00:41:17.435Z,22.50
2023-01-23T00:43:45.116Z,22.38
2023-01-23T00:46:12.051Z,25.33
2023-01-23T00:48:39.925Z,18.50
2023-01-23T00:51:06.843Z,15.27
2023-01-23T00:53:33.779Z,15.07
2023-01-23T00:56:01.005Z,13.75
2023-01-23T00:58:28.212Z,12.63
2023-01-23T01:00:55.183Z,12.80
2023-01-23T01:03:25.231Z,13.75
2023-01-23T01:05:52.305Z,11.95
2023-01-23T01:08:19.205Z,12.77
2023-01-23T01:10:46.124Z,11.35
2023-01-23T01:13:13.158Z,12.85
2023-01-23T01:15:40.043Z,12.60
2023-01-23T01:18:07.063Z,13.77
2023-01-23T01:20:34.240Z,16.10
2023-01-23T01:23:01.703Z,13.82
2023-01-23T01:25:30.453Z,15.70
2023-01-23T01:27:58.399Z,14.20
2023-01-23T01:30:27.683Z,18.45
2023-01-23T01:32:55.357Z,21.35
2023-01-23T01:35:23.114Z,23.63
2023-01-23T01:37:51.536Z,16.17
2023-01-23T01:40:23.836Z,14.00
2023-01-23T01:42:56.940Z,17.75
2023-01-23T01:46:01.516Z,14.38
2023-01-23T01:49:01.756Z,15.20
2023-01-23T01:51:52.947Z,11.43
2023-01-23T01:54:29.504Z,18.95
2023-01-23T01:57:23.299Z,13.65
2023-01-23T02:00:09.835Z,13.48
2023-01-23T02:02:54.533Z,12.48
2023-01-23T02:05:26.344Z,16.70
2023-01-23T02:08:18.975Z,16.60
2023-01-23T02:10:48.989Z,14.05
2023-01-23T02:13:28.524Z,14.20
2023-01-23T02:15:57.936Z,9.88
2023-01-23T02:18:27.024Z,10.38
2023-01-23T02:20:56.660Z,15.25
2023-01-23T02:24:01.694Z,7.07
2023-01-23T02:26:33.947Z,14.52
2023-01-23T02:29:01.315Z,20.70
2023-01-23T02:31:32.876Z,28.08
2023-01-23T02:34:00.508Z,26.08
2023-01-23T02:36:33.381Z,26.05
2023-01-23T02:39:16.935Z,27.50
2023-01-23T02:41:49.898Z,29.35
2023-01-23T02:44:21.266Z,27.05
2023-01-23T02:46:54.149Z,21.23
2023-01-23T02:49:22.169Z,18.23
2023-01-23T02:51:50.211Z,21.85
2023-01-23T02:54:19.012Z,26.23
2023-01-23T02:56:45.880Z,25.10
2023-01-23T02:59:31.732Z,24.20
2023-01-23T03:01:59.032Z,23.13
2023-01-23T03:04:26.238Z,20.17
2023-01-23T03:06:54.102Z,21.73
2023-01-23T03:09:20.983Z,21.13
2023-01-23T03:11:47.924Z,20.98
2023-01-23T03:14:18.018Z,17.98
2023-01-23T03:16:50.386Z,17.17
2023-01-23T03:19:20.921Z,12.50
2023-01-23T03:21:49.330Z,19.17
2023-01-23T03:24:17.093Z,19.58
2023-01-23T03:26:48.411Z,18.45
2023-01-23T03:29:44.339Z,12.98
2023-01-23T03:32:15.252Z,13.57
2023-01-23T03:34:43.939Z,10.77
2023-01-23T03:37:12.787Z,11.98
2023-01-23T03:40:01.440Z,13.55
2023-01-23T03:42:28.501Z,16.30
2023-01-23T03:44:57.822Z,17.15
2023-01-23T03:47:27.751Z,14.60
2023-01-23T03:49:55.581Z,9.00
2023-01-23T03:52:22.677Z,15.85
2023-01-23T03:54:52.228Z,11.63
2023-01-23T03:57:19.330Z,11.73
2023-01-23T04:00:05.442Z,15.80
2023-01-23T04:02:45.007Z,12.07
2023-01-23T04:05:14.152Z,16.67
2023-01-23T04:07:41.024Z,14.48
2023-01-23T04:10:09.934Z,13.93
2023-01-23T04:12:38.419Z,12.02
2023-01-23T04:15:05.900Z,9.85
2023-01-23T04:17:33.185Z,10.25
2023-01-23T04:20:00.039Z,14.38
2023-01-23T04:22:27.262Z,11.18
2023-01-23T04:24:55.023Z,12.32
2023-01-23T04:27:22.075Z,9.48
2023-01-23T04:29:50.141Z,15.38
2023-01-23T04:32:17.838Z,13.35
2023-01-23T04:34:47.552Z,12.68
2023-01-23T04:37:14.947Z,11.95
2023-01-23T04:39:41.974Z,9.30
2023-01-23T04:42:09.520Z,16.63
2023-01-23T04:44:57.640Z,13.98
2023-01-23T04:47:33.437Z,10.00
2023-01-23T04:50:02.319Z,10.02
2023-01-23T04:52:32.738Z,17.48
2023-01-23T04:54:59.595Z,19.70
2023-01-23T04:57:26.662Z,14.07
2023-01-23T05:00:04.860Z,6.70
2023-01-23T05:02:32.408Z,9.65
2023-01-23T05:04:59.284Z,16.02
2023-01-23T05:07:26.590Z,16.70
2023-01-23T05:10:12.647Z,10.93
2023-01-23T05:12:43.099Z,11.43
2023-01-23T05:15:12.744Z,25.13
2023-01-23T05:17:41.687Z,12.20
2023-01-23T05:20:10.290Z,9.00
2023-01-23T05:22:38.866Z,11.50
2023-01-23T05:25:06.267Z,15.23
2023-01-23T05:27:33.406Z,10.15
2023-01-23T05:30:00.327Z,14.02
2023-01-23T05:32:31.611Z,9.38
2023-01-23T05:35:16.747Z,8.82
2023-01-23T05:37:44.102Z,8.60
2023-01-23T05:40:13.417Z,6.88
2023-01-23T05:42:58.878Z,6.22
2023-01-23T05:45:44.310Z,11.90
2023-01-23T05:48:20.938Z,8.25
2023-01-23T05:50:47.841Z,9.40
2023-01-23T05:53:14.846Z,9.55
2023-01-23T05:55:42.147Z,8.32
2023-01-23T05:58:11.577Z,8.50
2023-01-23T06:00:58.673Z,13.23
2023-01-23T06:03:44.572Z,7.15
2023-01-23T06:06:47.069Z,6.18
2023-01-23T06:09:14.777Z,8.07
2023-01-23T06:11:41.645Z,5.78
2023-01-23T06:14:09.696Z,8.85
2023-01-23T06:16:36.740Z,11.15
2023-01-23T06:19:04.720Z,10.93
2023-01-23T06:21:39.762Z,10.10
2023-01-23T06:24:07.419Z,10.02
2023-01-23T06:26:34.271Z,9.07
2023-01-23T06:29:02.168Z,10.13
2023-01-23T06:31:32.502Z,14.60
2023-01-23T06:34:01.785Z,8.73
2023-01-23T06:36:34.411Z,8.77
2023-01-23T06:39:04.319Z,13.60
2023-01-23T06:41:40.286Z,11.98
2023-01-23T06:44:13.476Z,9.93
2023-01-23T06:46:40.617Z,11.93
2023-01-23T06:49:08.004Z,13.35
2023-01-23T06:51:36.981Z,9.25
2023-01-23T06:54:06.150Z,8.60
2023-01-23T06:56:33.809Z,11.35
2023-01-23T06:59:04.284Z,9.82
2023-01-23T07:01:33.009Z,8.10
2023-01-23T07:04:19.022Z,10.02
2023-01-23T07:06:49.617Z,12.57
2023-01-23T07:09:18.298Z,7.93
2023-01-23T07:11:51.963Z,8.80
2023-01-23T07:14:18.893Z,12.63
2023-01-23T07:16:48.371Z,10.45
2023-01-23T07:19:16.042Z,10.05
2023-01-23T07:21:43.423Z,13.50
2023-01-23T07:24:10.256Z,12.07
2023-01-23T07:26:37.136Z,9.68
2023-01-23T07:29:04.204Z,16.55
2023-01-23T07:31:31.142Z,13.65
2023-01-23T07:33:57.955Z,9.35
2023-01-23T07:36:24.809Z,13.13
2023-01-23T07:38:51.695Z,11.63
2023-01-23T07:41:18.779Z,12.25
2023-01-23T07:43:45.979Z,13.30
2023-01-23T07:46:12.840Z,12.50
2023-01-23T07:48:40.525Z,17.38
2023-01-23T07:51:07.729Z,14.40
2023-01-23T07:53:34.755Z,15.27
2023-01-23T07:56:05.732Z,14.70
2023-01-23T07:58:33.057Z,18.20
2023-01-23T08:01:00.261Z,16.98
2023-01-23T08:03:29.179Z,18.48
2023-01-23T08:05:59.825Z,12.15
2023-01-23T08:08:26.887Z,16.55
2023-01-23T08:10:53.699Z,21.38
2023-01-23T08:13:20.612Z,16.30
2023-01-23T08:15:47.411Z,13.95
2023-01-23T08:18:14.241Z,17.00
2023-01-23T08:20:43.506Z,12.60
2023-01-23T08:23:10.896Z,18.85
2023-01-23T08:25:38.524Z,15.15
2023-01-23T08:28:05.555Z,15.90
2023-01-23T08:30:32.774Z,17.55
2023-01-23T08:33:04.783Z,15.38
2023-01-23T08:35:31.850Z,12.90
2023-01-23T08:38:02.729Z,15.10
2023-01-23T08:40:30.340Z,17.48
2023-01-23T08:42:57.511Z,14.65
2023-01-23T08:45:25.590Z,17.20
2023-01-23T08:47:52.461Z,17.42
2023-01-23T08:50:19.973Z,14.90
2023-01-23T08:52:47.003Z,15.23
2023-01-23T08:55:13.989Z,13.90
2023-01-23T08:57:40.910Z,10.57
2023-01-23T09:00:08.390Z,10.52
2023-01-23T09:02:35.280Z,14.82
2023-01-23T09:05:02.529Z,14.90
2023-01-23T09:07:29.464Z,10.45
2023-01-23T09:09:56.409Z,11.55
2023-01-23T09:12:23.250Z,11.95
2023-01-23T09:14:50.323Z,10.50
2023-01-23T09:17:17.137Z,9.75
2023-01-23T09:19:44.039Z,7.60
2023-01-23T09:22:10.847Z,5.78
2023-01-23T09:24:37.696Z,7.55
2023-01-23T09:27:04.522Z,10.57
2023-01-23T09:29:31.681Z,9.48
2023-01-23T09:31:58.847Z,6.97
2023-01-23T09:34:25.745Z,6.00
2023-01-23T09:36:52.589Z,5.25
2023-01-23T09:39:20.901Z,9.50
2023-01-23T09:41:49.362Z,5.80
2023-01-23T09:44:41.310Z,12.23
2023-01-23T09:47:17.771Z,7.28
2023-01-23T09:49:53.261Z,8.57
2023-01-23T09:52:24.142Z,10.32
2023-01-23T09:55:01.563Z,5.63
2023-01-23T09:57:37.197Z,9.75
2023-01-23T10:00:13.205Z,7.35
2023-01-23T10:02:43.859Z,5.97
2023-01-23T10:05:19.555Z,9.05
2023-01-23T10:07:52.672Z,10.38
2023-01-23T10:10:34.569Z,6.13
2023-01-23T10:13:31.364Z,8.25
2023-01-23T10:16:17.366Z,7.55
2023-01-23T10:19:09.583Z,11.40
2023-01-23T10:21:47.961Z,8.20
2023-01-23T10:24:41.025Z,10.98
2023-01-23T10:27:23.109Z,9.27
2023-01-23T10:29:58.558Z,11.52
2023-01-23T10:32:29.982Z,7.25
2023-01-23T10:35:12.596Z,9.00
2023-01-23T10:37:51.467Z,11.73
2023-01-23T10:40:41.681Z,7.70
2023-01-23T10:43:27.076Z,10.48
2023-01-23T10:45:53.995Z,12.05
2023-01-23T10:48:33.079Z,12.55
2023-01-23T10:51:00.961Z,12.57
2023-01-23T10:53:28.006Z,11.95
2023-01-23T10:55:59.415Z,12.75
2023-01-23T10:58:43.566Z,9.52
2023-01-23T11:01:32.994Z,7.53
2023-01-23T11:04:21.929Z,11.65
2023-01-23T11:07:05.932Z,9.10
2023-01-23T11:09:33.577Z,9.05
2023-01-23T11:12:05.228Z,13.80
2023-01-23T11:14:32.911Z,9.60
2023-01-23T11:17:22.502Z,13.07
2023-01-23T11:19:54.329Z,9.02
2023-01-23T11:22:27.678Z,9.77
2023-01-23T11:24:54.996Z,7.35
2023-01-23T11:27:26.732Z,8.82
2023-01-23T11:29:59.762Z,13.70
2023-01-23T11:32:29.233Z,12.00
2023-01-23T11:35:11.997Z,12.52
2023-01-23T11:37:40.605Z,14.00
2023-01-23T11:40:17.194Z,10.88
2023-01-23T11:42:44.871Z,7.72
2023-01-23T11:45:45.189Z,7.57
2023-01-23T11:48:41.506Z,11.68
2023-01-23T11:51:42.954Z,7.90
2023-01-23T11:54:42.521Z,9.45
2023-01-23T11:57:33.939Z,9.35
2023-01-23T12:00:07.518Z,10.85
2023-01-23T12:02:58.819Z,8.20
2023-01-23T12:05:31.795Z,8.63
2023-01-23T12:08:11.658Z,12.38
2023-01-23T12:11:16.413Z,11.93
2023-01-23T12:14:27.696Z,9.80
2023-01-23T12:19:36.831Z,12.48
2023-01-23T12:22:03.668Z,10.18
2023-01-23T12:25:06.508Z,12.32
2023-01-23T12:27:46.360Z,14.05
2023-01-23T12:30:35.966Z,15.43
2023-01-23T12:33:18.394Z,11.43
2023-01-23T12:35:59.464Z,12.30
2023-01-23T12:38:47.514Z,10.52
2023-01-23T12:41:26.332Z,11.70
2023-01-23T12:44:32.024Z,12.40
2023-01-23T12:47:05.958Z,10.07
2023-01-23T12:49:44.212Z,13.38
2023-01-23T12:52:36.005Z,14.43
2023-01-23T12:55:19.344Z,11.00
2023-01-23T12:58:00.277Z,12.20
2023-01-23T13:01:13.123Z,15.00
2023-01-23T13:03:59.328Z,16.00
2023-01-23T13:06:43.252Z,14.05
2023-01-23T13:09:34.276Z,15.73
2023-01-23T13:12:22.389Z,14.77
2023-01-23T13:15:13.325Z,16.17
2023-01-23T13:17:59.977Z,11.55
2023-01-23T13:20:54.269Z,16.73
2023-01-23T13:23:24.488Z,15.43
2023-01-23T13:26:21.154Z,14.52
2023-01-23T13:29:31.407Z,11.90
2023-01-23T13:32:28.254Z,14.10
2023-01-23T13:34:55.813Z,13.07
2023-01-23T13:37:29.106Z,14.15
2023-01-23T13:40:15.869Z,14.63
2023-01-23T13:42:43.918Z,18.80
2023-01-23T13:45:16.903Z,18.98
2023-01-23T14:31:07.151Z,11.88
2023-01-23T14:33:49.648Z,12.40
2023-01-23T14:36:19.889Z,11.88
2023-01-23T14:38:50.164Z,10.13
2023-01-23T14:41:20.918Z,7.60
2023-01-23T14:43:57.743Z,9.77
2023-01-23T14:46:36.001Z,8.25
2023-01-23T14:49:11.201Z,7.38
2023-01-23T14:51:39.716Z,10.80
2023-01-23T14:54:20.402Z,8.57
2023-01-23T14:56:51.627Z,12.40
2023-01-23T14:59:32.829Z,17.30
2023-01-23T15:02:13.172Z,7.88
2023-01-23T15:05:08.054Z,8.50
2023-01-23T15:07:43.899Z,7.07
2023-01-23T15:10:20.144Z,8.68
2023-01-23T15:13:21.548Z,5.97
2023-01-23T15:16:04.069Z,6.20
2023-01-23T15:18:35.591Z,6.22
2023-01-23T15:21:08.348Z,7.97
2023-01-23T15:23:38.326Z,7.88
2023-01-23T15:26:18.745Z,8.77
2023-01-23T15:28:55.401Z,5.18
2023-01-23T15:31:42.359Z,5.45
2023-01-23T15:34:15.729Z,5.82
2023-01-23T15:37:06.693Z,6.32
2023-01-23T15:39:49.521Z,5.43
2023-01-23T15:42:16.867Z,4.53
2023-01-23T15:44:44.344Z,5.03
2023-01-23T15:47:11.464Z,4.55
2023-01-23T15:49:40.469Z,4.35
2023-01-23T15:52:25.739Z,9.15
2023-01-23T15:55:01.693Z,6.13
2023-01-23T15:57:29.136Z,6.93
2023-01-23T15:59:55.962Z,4.50
2023-01-23T16:02:31.298Z,6.15
2023-01-23T16:05:02.350Z,5.85
2023-01-23T16:07:35.757Z,5.57
2023-01-23T16:10:17.158Z,4.30
2023-01-23T16:12:46.936Z,4.93
2023-01-23T16:15:19.802Z,8.00
2023-01-23T16:17:47.536Z,7.78
2023-01-23T16:20:28.986Z,10.80
2023-01-23T16:23:08.503Z,8.10
2023-01-23T16:25:44.850Z,6.50
2023-01-23T16:28:24.464Z,7.20
2023-01-23T16:30:52.157Z,10.98
2023-01-23T16:33:20.303Z,8.32
2023-01-23T16:35:49.357Z,7.40
2023-01-23T16:38:24.442Z,5.47
2023-01-23T16:40:54.193Z,5.97
2023-01-23T16:43:21.809Z,8.88
2023-01-23T16:45:49.119Z,7.53
2023-01-23T16:48:26.798Z,9.23
2023-01-23T16:51:05.291Z,7.40
2023-01-23T16:53:40.911Z,12.05
2023-01-23T16:56:13.098Z,12.23
2023-01-23T16:58:41.257Z,14.02
2023-01-23T17:01:15.931Z,17.42
2023-01-23T17:03:44.396Z,19.23
2023-01-23T17:06:16.422Z,13.00
2023-01-23T17:08:43.377Z,16.30
2023-01-23T17:11:17.618Z,20.48
2023-01-23T17:13:47.735Z,17.13
2023-01-23T17:16:26.394Z,19.17
2023-01-23T17:18:59.528Z,29.45
2023-01-23T17:21:33.877Z,26.30
2023-01-23T17:24:01.379Z,26.92
2023-01-23T17:26:28.293Z,31.63
2023-01-23T17:28:55.860Z,24.67
2023-01-23T17:31:28.636Z,27.95
2023-01-23T17:33:56.292Z,33.40
2023-01-23T17:36:26.446Z,30.17
2023-01-23T17:38:59.679Z,29.33
2023-01-23T17:41:26.541Z,25.05
2023-01-23T17:43:54.271Z,27.85
2023-01-23T17:46:27.051Z,21.15
2023-01-23T17:48:56.377Z,29.58
2023-01-23T17:51:25.373Z,33.53
2023-01-23T17:53:53.469Z,33.97
2023-01-23T17:56:22.944Z,31.67
2023-01-23T17:58:49.811Z,35.53
2023-01-23T18:01:23.662Z,45.80
2023-01-23T18:03:52.082Z,44.08
2023-01-23T18:06:21.523Z,47.45
2023-01-23T18:08:48.727Z,63.80
2023-01-23T18:11:23.885Z,63.88
2023-01-23T18:14:08.210Z,42.15
2023-01-23T18:16:45.674Z,86.25
2023-01-23T18:19:19.398Z,86.60
2023-01-23T18:21:57.901Z,83.00
2023-01-23T18:24:30.487Z,93.60
2023-01-23T18:27:12.080Z,102.60
2023-01-23T18:29:58.286Z,98.50
2023-01-23T18:32:40.639Z,93.63
2023-01-23T18:35:20.095Z,103.03
2023-01-23T18:38:03.962Z,104.25
2023-01-23T18:40:53.546Z,109.90
2023-01-23T18:43:43.812Z,97.05
2023-01-23T18:46:16.235Z,83.55
2023-01-23T18:48:45.182Z,93.78
2023-01-23T18:51:21.027Z,89.85
2023-01-23T18:54:14.282Z,92.80
2023-01-23T18:56:52.916Z,98.25
2023-01-23T18:59:25.373Z,89.15
2023-01-23T19:02:01.000Z,69.60
2023-01-23T19:04:38.684Z,50.45
2023-01-23T19:07:16.111Z,32.85
2023-01-23T19:12:25.348Z,39.75
2023-01-23T19:15:08.430Z,51.03
2023-01-23T19:17:44.225Z,48.67
2023-01-23T19:20:26.415Z,28.65
2023-01-23T19:23:17.809Z,26.33
2023-01-23T19:25:48.273Z,25.50
2023-01-23T19:28:16.464Z,55.10
2023-01-23T19:30:43.749Z,48.83
2023-01-23T19:33:19.185Z,48.25
2023-01-23T19:35:47.439Z,58.90
2023-01-23T19:38:17.617Z,52.22
2023-01-23T19:40:45.848Z,47.30
2023-01-23T19:43:17.008Z,41.25
2023-01-23T19:45:45.267Z,38.72
2023-01-23T19:48:12.657Z,35.70
2023-01-23T19:50:41.004Z,35.50
2023-01-23T19:53:08.342Z,38.85
2023-01-23T19:55:38.429Z,35.00
2023-01-23T19:58:05.655Z,48.53
2023-01-23T20:00:38.772Z,44.42
2023-01-23T20:03:05.909Z,49.13
2023-01-23T20:05:33.136Z,51.03
2023-01-23T20:08:01.154Z,58.78
2023-01-23T20:10:28.730Z,49.75
2023-01-23T20:12:56.788Z,48.47
2023-01-23T20:15:25.754Z,43.65
2023-01-23T20:17:54.688Z,46.67
2023-01-23T20:20:22.234Z,50.55
2023-01-23T20:22:51.572Z,55.95
2023-01-23T20:25:19.132Z,43.33
2023-01-23T20:27:46.181Z,52.88
2023-01-23T20:30:16.220Z,48.63
2023-01-23T20:32:44.411Z,49.40
2023-01-23T20:35:11.954Z,42.88
2023-01-23T20:37:38.927Z,47.33
2023-01-23T20:40:09.276Z,40.67
2023-01-23T20:42:36.141Z,48.40
2023-01-23T20:45:03.735Z,49.75
2023-01-23T20:47:30.661Z,41.25
2023-01-23T20:49:57.501Z,44.55
2023-01-23T20:52:43.482Z,43.15
2023-01-23T20:55:10.439Z,45.92
2023-01-23T20:57:56.025Z,49.72
2023-01-23T21:00:23.043Z,46.22
2023-01-23T21:02:50.622Z,48.95
2023-01-23T21:05:17.964Z,50.42
2023-01-23T21:07:44.837Z,57.28
2023-01-23T21:10:12.486Z,54.17
2023-01-23T21:12:39.306Z,51.00
2023-01-23T21:15:06.928Z,56.10
2023-01-23T21:17:34.220Z,51.88
2023-01-23T21:20:01.361Z,50.35
2023-01-23T21:22:28.221Z,56.67
2023-01-23T21:24:57.749Z,65.05
2023-01-23T21:27:26.058Z,69.88
2023-01-23T21:29:53.380Z,61.03
2023-01-23T21:32:21.530Z,55.72
2023-01-23T21:34:48.702Z,52.10
2023-01-23T21:37:15.872Z,50.05
2023-01-23T21:39:43.388Z,52.63
2023-01-23T21:42:10.189Z,49.38
2023-01-23T21:44:37.338Z,46.50
2023-01-23T21:47:04.506Z,46.95
2023-01-23T21:49:31.667Z,54.38
2023-01-23T21:51:58.474Z,51.60
2023-01-23T21:54:27.516Z,61.28
2023-01-23T21:56:54.400Z,60.40
2023-01-23T21:59:21.229Z,55.45
2023-01-23T22:01:48.587Z,48.15
2023-01-23T22:04:22.536Z,44.47
2023-01-23T22:06:55.497Z,47.95
2023-01-23T22:09:24.964Z,43.53
2023-01-23T22:11:52.885Z,49.50
2023-01-23T22:14:20.408Z,51.22
2023-01-23T22:16:49.525Z,46.28
2023-01-23T22:19:19.670Z,49.90
2023-01-23T22:21:47.352Z,51.30
2023-01-23T22:24:15.344Z,39.47
2023-01-23T22:26:42.934Z,38.47
2023-01-23T22:29:12.446Z,34.80
2023-01-23T22:31:39.365Z,27.88
2023-01-23T22:34:06.373Z,26.08
2023-01-23T22:36:33.191Z,37.17
2023-01-23T22:39:00.184Z,30.13
2023-01-23T22:41:28.699Z,32.08
2023-01-23T22:43:56.935Z,31.55
2023-01-23T22:46:24.110Z,31.65
2023-01-23T22:48:51.833Z,29.02
2023-01-23T22:51:24.761Z,33.33
2023-01-23T22:53:56.307Z,29.00
2023-01-23T22:56:23.943Z,30.52
2023-01-23T22:58:52.472Z,32.05
2023-01-23T23:01:20.329Z,32.42
2023-01-23T23:03:47.467Z,25.27
2023-01-23T23:06:16.765Z,25.40
2023-01-23T23:08:48.158Z,27.55
2023-01-23T23:11:21.795Z,24.23
2023-01-23T23:13:51.579Z,27.98
2023-01-23T23:16:27.449Z,30.45
2023-01-23T23:18:56.468Z,25.50
2023-01-23T23:21:28.776Z,27.63
2023-01-23T23:24:00.510Z,31.88
2023-01-23T23:26:30.143Z,23.80
2023-01-23T23:28:57.613Z,27.38
2023-01-23T23:31:25.450Z,26.98
2023-01-23T23:33:53.233Z,29.25
2023-01-23T23:36:20.595Z,27.67
2023-01-23T23:38:47.784Z,24.27
2023-01-23T23:41:17.893Z,25.05
2023-01-23T23:43:45.037Z,23.58
2023-01-23T23:46:13.368Z,24.13
2023-01-23T23:48:41.198Z,26.00
2023-01-23T23:51:11.288Z,20.40
2023-01-23T23:53:38.224Z,19.05
2023-01-23T23:56:06.612Z,18.42
2023-01-23T23:58:36.786Z,17.25
